Time;durP1;ratioP1;P1;durP2;ratioP2;P2;SDS_P1;SDS_P2;PMS_P1;PMS_P2;Temp;Humidity;BMP_temperature;BMP_pressure;BME280_temperature;BME280_humidity;BME280_pressure;Samples;Min_cycle;Max_cycle;Signal;HPM_P1;HPM_P2
2023/07/04 00:01:19;;;;;;;8.00;2.58;;;12.20;90.90;;;;;;5055886;28;20060;-45
2023/07/04 00:03:51;;;;;;;8.68;2.55;;;12.20;91.00;;;;;;5054643;28;20037;-45
2023/07/04 00:06:28;;;;;;;7.07;2.83;;;12.20;91.00;;;;;;5056089;28;20453;-45
2023/07/04 00:08:54;;;;;;;7.80;2.35;;;12.20;91.10;;;;;;5066857;28;20090;-45
2023/07/04 00:11:20;;;;;;;5.95;1.70;;;12.20;91.10;;;;;;5075752;28;20036;-44
2023/07/04 00:13:51;;;;;;;11.25;3.50;;;12.10;91.10;;;;;;5073527;28;20514;-43
2023/07/04 00:16:17;;;;;;;9.35;1.98;;;12.10;91.20;;;;;;5032005;28;20053;-45
2023/07/04 00:18:44;;;;;;;8.48;2.03;;;12.10;91.00;;;;;;5035882;28;20083;-45
2023/07/04 00:21:14;;;;;;;5.68;2.05;;;12.10;91.20;;;;;;5035683;28;20056;-44
2023/07/04 00:23:46;;;;;;;8.23;2.05;;;12.10;91.20;;;;;;5047780;28;20421;-44
2023/07/04 00:26:16;;;;;;;7.55;1.70;;;12.10;91.30;;;;;;5055469;28;20025;-43
2023/07/04 00:28:47;;;;;;;5.03;1.77;;;12.10;91.40;;;;;;5035272;28;20628;-45
2023/07/04 00:31:18;;;;;;;7.95;2.30;;;12.10;91.20;;;;;;5034263;28;20029;-44
2023/07/04 00:33:47;;;;;;;4.65;2.78;;;12.10;91.30;;;;;;5034954;28;20037;-44
2023/07/04 00:36:16;;;;;;;4.07;1.70;;;12.10;91.50;;;;;;5035489;28;20025;-43
2023/07/04 00:38:44;;;;;;;7.18;2.28;;;12.10;91.40;;;;;;5033011;28;20506;-44
2023/07/04 00:41:16;;;;;;;7.32;2.65;;;12.00;91.40;;;;;;5035082;28;20848;-43
2023/07/04 00:44:15;;;;;;;8.20;1.98;;;12.00;91.40;;;;;;5036291;28;20040;-44
2023/07/04 00:47:15;;;;;;;7.32;2.10;;;12.00;91.30;;;;;;5035267;28;20395;-43
2023/07/04 00:50:07;;;;;;;9.82;2.25;;;12.00;91.30;;;;;;5034908;28;20030;-44
2023/07/04 00:52:36;;;;;;;7.55;1.83;;;12.00;91.40;;;;;;5040271;28;20037;-44
2023/07/04 00:55:07;;;;;;;4.85;2.10;;;12.00;91.40;;;;;;5051351;28;20366;-44
2023/07/04 00:57:37;;;;;;;9.38;2.08;;;12.00;91.40;;;;;;5035082;28;20033;-44
2023/07/04 01:00:17;;;;;;;10.32;3.05;;;11.90;91.40;;;;;;5034788;28;20024;-44
2023/07/04 01:02:45;;;;;;;7.95;2.65;;;11.90;91.40;;;;;;5034906;28;20389;-44
2023/07/04 01:05:37;;;;;;;8.65;1.83;;;11.90;91.50;;;;;;5034242;28;20109;-43
2023/07/04 01:08:16;;;;;;;7.95;2.05;;;11.90;91.60;;;;;;5020586;28;20037;-44
2023/07/04 01:10:45;;;;;;;6.37;1.90;;;11.90;91.60;;;;;;5047684;28;20099;-44
2023/07/04 01:13:35;;;;;;;10.32;2.40;;;11.90;91.50;;;;;;5046278;28;20022;-44
2023/07/04 01:16:06;;;;;;;4.22;1.55;;;11.90;91.40;;;;;;5039164;28;20378;-43
2023/07/04 01:18:32;;;;;;;9.05;2.72;;;11.90;91.30;;;;;;5054947;28;20036;-44
2023/07/04 01:21:01;;;;;;;7.78;1.83;;;11.90;91.50;;;;;;5054038;28;20450;-44
2023/07/04 01:24:07;;;;;;;7.25;2.25;;;11.90;91.40;;;;;;5068971;28;20085;-44
2023/07/04 01:26:51;;;;;;;7.70;2.22;;;11.90;91.50;;;;;;5043245;28;20457;-45
2023/07/04 01:29:18;;;;;;;6.90;1.85;;;11.90;91.40;;;;;;5057856;28;20060;-45
2023/07/04 01:31:45;;;;;;;6.75;1.80;;;11.80;91.40;;;;;;5054337;28;20040;-44
2023/07/04 01:34:18;;;;;;;9.35;2.38;;;11.90;91.60;;;;;;5054141;28;20324;-43
2023/07/04 01:36:45;;;;;;;5.30;2.30;;;11.80;91.60;;;;;;5056767;28;20119;-45
2023/07/04 01:39:16;;;;;;;7.72;2.20;;;11.80;91.60;;;;;;5075078;28;20025;-44
2023/07/04 01:41:45;;;;;;;10.85;2.53;;;11.80;91.70;;;;;;5074175;28;20107;-43
2023/07/04 01:44:13;;;;;;;10.57;2.55;;;11.80;91.70;;;;;;5056864;28;20382;-43
2023/07/04 01:46:39;;;;;;;7.82;2.95;;;11.80;91.80;;;;;;5054599;28;20025;-43
2023/07/04 01:49:07;;;;;;;8.55;1.90;;;11.80;91.70;;;;;;5053822;28;20039;-44
2023/07/04 01:51:37;;;;;;;6.53;2.40;;;11.80;91.70;;;;;;5055889;28;20029;-44
2023/07/04 01:54:05;;;;;;;5.00;1.80;;;11.80;91.80;;;;;;5073742;28;20028;-46
2023/07/04 01:56:34;;;;;;;8.95;2.55;;;11.80;91.90;;;;;;5051883;28;20033;-44
2023/07/04 01:59:01;;;;;;;7.93;2.13;;;11.80;91.90;;;;;;5053143;28;20353;-45
2023/07/04 02:01:27;;;;;;;10.38;2.38;;;11.80;91.90;;;;;;5054648;28;20021;-44
2023/07/04 02:03:53;;;;;;;9.52;2.08;;;11.80;91.80;;;;;;5052909;28;20083;-44
2023/07/04 02:06:22;;;;;;;5.95;2.17;;;11.80;91.90;;;;;;5057055;28;20024;-44
2023/07/04 02:08:48;;;;;;;8.73;2.35;;;11.80;91.90;;;;;;5073502;28;20071;-44
2023/07/04 02:11:15;;;;;;;6.82;2.30;;;11.80;91.80;;;;;;5059083;28;20089;-45
2023/07/04 02:13:41;;;;;;;13.45;2.95;;;11.80;91.90;;;;;;5051759;28;20485;-44
2023/07/04 02:16:06;;;;;;;6.63;2.13;;;11.80;91.90;;;;;;5053595;28;20052;-44
2023/07/04 02:18:38;;;;;;;6.70;3.20;;;11.80;91.90;;;;;;5061581;28;20048;-43
2023/07/04 02:21:06;;;;;;;9.77;2.50;;;11.80;91.90;;;;;;5066194;28;20044;-44
2023/07/04 02:23:35;;;;;;;9.13;1.98;;;11.80;91.80;;;;;;5073070;28;20346;-45
2023/07/04 02:26:02;;;;;;;8.65;2.35;;;11.80;91.70;;;;;;5062367;28;20112;-45
2023/07/04 02:28:27;;;;;;;7.47;2.05;;;11.80;91.90;;;;;;5053437;28;20421;-43
2023/07/04 02:30:55;;;;;;;12.18;2.85;;;11.80;91.80;;;;;;5035388;28;20029;-44
2023/07/04 02:33:22;;;;;;;8.77;2.33;;;11.80;91.80;;;;;;5053220;28;20108;-45
2023/07/04 02:35:50;;;;;;;8.52;2.30;;;11.80;91.80;;;;;;5047670;28;20037;-44
2023/07/04 02:38:17;;;;;;;10.68;2.97;;;11.80;91.80;;;;;;5071997;28;20311;-44
2023/07/04 02:40:48;;;;;;;8.88;2.67;;;11.80;92.00;;;;;;5069187;28;20139;-45
2023/07/04 02:43:15;;;;;;;9.82;3.72;;;11.80;92.10;;;;;;5053044;28;20025;-46
2023/07/04 02:45:43;;;;;;;8.63;2.80;;;11.80;92.10;;;;;;5052930;28;20857;-43
2023/07/04 02:48:10;;;;;;;9.45;3.50;;;11.80;92.00;;;;;;5034294;28;20029;-44
2023/07/04 02:50:36;;;;;;;10.50;2.78;;;11.80;92.00;;;;;;5065889;28;20051;-44
2023/07/04 02:53:06;;;;;;;8.05;3.00;;;11.70;92.00;;;;;;5072750;28;20103;-43
2023/07/04 02:55:34;;;;;;;10.85;2.83;;;11.80;92.00;;;;;;5054543;28;20028;-45
2023/07/04 02:58:01;;;;;;;8.35;3.17;;;11.80;92.00;;;;;;5052544;28;20098;-44
2023/07/04 03:00:30;;;;;;;9.05;2.17;;;11.70;92.00;;;;;;5043527;28;20036;-45
2023/07/04 03:02:56;;;;;;;8.63;2.42;;;11.70;92.10;;;;;;5050849;28;20021;-44
2023/07/04 03:05:25;;;;;;;6.32;2.75;;;11.70;91.90;;;;;;5061558;28;20028;-45
2023/07/04 03:07:51;;;;;;;13.00;2.50;;;11.80;92.00;;;;;;5090304;28;20081;-45
2023/07/04 03:10:18;;;;;;;4.22;2.05;;;11.80;92.10;;;;;;5065134;28;20112;-45
2023/07/04 03:12:45;;;;;;;7.70;1.67;;;11.70;92.20;;;;;;5056862;28;20028;-44
2023/07/04 03:15:13;;;;;;;8.77;3.03;;;11.80;92.30;;;;;;5063539;28;20025;-45
2023/07/04 03:17:43;;;;;;;9.57;2.17;;;11.90;92.30;;;;;;5056492;28;20056;-46
2023/07/04 03:20:10;;;;;;;6.20;2.55;;;11.90;92.40;;;;;;5062074;28;20091;-46
2023/07/04 03:22:46;;;;;;;11.07;3.03;;;11.90;92.50;;;;;;5060192;28;20060;-45
2023/07/04 03:25:16;;;;;;;12.00;2.92;;;11.90;92.50;;;;;;5058004;28;20025;-45
2023/07/04 03:27:42;;;;;;;9.80;2.78;;;11.90;92.60;;;;;;5056453;28;20025;-45
2023/07/04 03:30:10;;;;;;;6.80;2.55;;;12.00;92.50;;;;;;5053081;28;20120;-45
2023/07/04 03:32:37;;;;;;;7.78;2.45;;;12.10;92.60;;;;;;5056595;28;20041;-45
2023/07/04 03:35:08;;;;;;;9.80;3.83;;;12.10;92.30;;;;;;5058661;28;20102;-45
2023/07/04 03:37:36;;;;;;;11.23;2.50;;;12.10;92.00;;;;;;5076651;28;20029;-45
2023/07/04 03:40:07;;;;;;;9.82;2.80;;;12.10;92.00;;;;;;5076473;28;20043;-45
2023/07/04 03:42:35;;;;;;;15.02;3.45;;;12.10;92.10;;;;;;5071965;28;20047;-45
2023/07/04 03:45:03;;;;;;;9.82;2.47;;;12.10;92.10;;;;;;5056511;28;20082;-48
2023/07/04 03:47:30;;;;;;;10.02;3.20;;;12.10;91.90;;;;;;5074061;28;20028;-44
2023/07/04 03:49:59;;;;;;;10.05;3.45;;;12.10;91.80;;;;;;5075813;28;20067;-44
2023/07/04 03:52:26;;;;;;;7.50;3.42;;;12.10;91.90;;;;;;5070898;28;20038;-44
2023/07/04 03:54:53;;;;;;;9.82;2.22;;;12.20;91.90;;;;;;5076103;28;20033;-44
2023/07/04 03:57:20;;;;;;;6.05;2.65;;;12.20;91.70;;;;;;5070930;28;20033;-46
2023/07/04 03:59:51;;;;;;;6.95;3.15;;;12.10;91.50;;;;;;5062234;28;20039;-44
2023/07/04 04:02:16;;;;;;;9.45;2.88;;;12.10;91.60;;;;;;5066002;28;20025;-45
2023/07/04 04:04:44;;;;;;;9.45;3.22;;;12.00;91.70;;;;;;5055994;28;20077;-45
2023/07/04 04:07:11;;;;;;;8.93;3.78;;;12.00;91.70;;;;;;5071520;28;20029;-46
2023/07/04 04:09:38;;;;;;;10.30;3.08;;;12.00;91.60;;;;;;5053776;28;20036;-47
2023/07/04 04:12:07;;;;;;;8.43;2.47;;;12.10;91.80;;;;;;5055960;28;20047;-44
2023/07/04 04:14:36;;;;;;;7.55;2.63;;;12.10;91.50;;;;;;5038194;28;20032;-44
2023/07/04 04:17:04;;;;;;;9.80;2.53;;;12.10;91.60;;;;;;5069825;28;20040;-44
2023/07/04 04:19:31;;;;;;;9.55;3.15;;;12.20;91.50;;;;;;5075639;28;20029;-44
2023/07/04 04:21:58;;;;;;;5.43;2.05;;;12.20;91.50;;;;;;5074471;28;20039;-44
2023/07/04 04:24:26;;;;;;;6.90;2.65;;;12.20;91.50;;;;;;5067391;28;20454;-44
2023/07/04 04:26:53;;;;;;;9.88;2.25;;;12.30;91.50;;;;;;5055538;28;20070;-43
2023/07/04 04:29:22;;;;;;;7.38;2.75;;;12.30;91.30;;;;;;5055351;28;20045;-45
2023/07/04 04:31:49;;;;;;;5.40;1.90;;;12.40;91.20;;;;;;5065245;28;20075;-44
2023/07/04 04:34:21;;;;;;;8.55;2.50;;;12.40;91.30;;;;;;5055430;28;20036;-44
2023/07/04 04:36:48;;;;;;;12.30;2.75;;;12.40;91.20;;;;;;5063345;28;20025;-45
2023/07/04 04:39:18;;;;;;;12.00;3.95;;;12.50;91.10;;;;;;5057776;28;20040;-44
2023/07/04 04:41:44;;;;;;;7.60;2.30;;;12.60;90.90;;;;;;5057744;28;20017;-43
2023/07/04 04:44:13;;;;;;;4.95;2.53;;;12.70;90.80;;;;;;5063400;28;20056;-46
2023/07/04 04:46:48;;;;;;;7.90;2.92;;;12.80;90.70;;;;;;5053884;28;20463;-44
2023/07/04 04:49:18;;;;;;;13.98;2.92;;;12.90;90.50;;;;;;5075220;28;20071;-43
2023/07/04 04:51:45;;;;;;;7.75;2.38;;;12.90;90.40;;;;;;5074384;28;20028;-43
2023/07/04 04:54:13;;;;;;;8.82;3.55;;;12.90;90.30;;;;;;5069735;28;20029;-44
2023/07/04 04:56:40;;;;;;;8.23;2.67;;;12.90;90.40;;;;;;5075015;28;20369;-46
2023/07/04 04:59:07;;;;;;;10.23;3.00;;;13.10;90.30;;;;;;5074480;28;20039;-47
2023/07/04 05:01:37;;;;;;;13.25;3.15;;;13.00;90.20;;;;;;5056121;28;20450;-43
2023/07/04 05:04:06;;;;;;;10.30;3.25;;;13.10;90.40;;;;;;5069406;28;20038;-46
2023/07/04 05:06:34;;;;;;;9.95;3.05;;;13.10;90.50;;;;;;5088142;28;20571;-45
2023/07/04 05:09:00;;;;;;;7.32;2.90;;;13.10;90.70;;;;;;5074588;28;20111;-44
2023/07/04 05:11:27;;;;;;;8.95;2.90;;;13.10;90.90;;;;;;5057384;28;20043;-44
2023/07/04 05:13:53;;;;;;;10.70;4.03;;;13.20;91.10;;;;;;5054879;28;20057;-43
2023/07/04 05:16:21;;;;;;;9.57;4.25;;;13.20;91.30;;;;;;5053977;28;20052;-44
2023/07/04 05:18:51;;;;;;;10.57;4.60;;;13.30;91.40;;;;;;5049363;28;20017;-46
2023/07/04 05:21:21;;;;;;;9.07;4.03;;;13.40;91.50;;;;;;5070470;28;20164;-43
2023/07/04 05:23:52;;;;;;;;;;;13.40;91.50;;;;;;5064395;28;20034;-43
2023/07/04 05:26:37;;;;;;;7.72;3.50;;;13.40;91.50;;;;;;5054358;28;20286;-43
2023/07/04 05:29:06;;;;;;;10.43;3.72;;;13.50;91.40;;;;;;5053874;28;20025;-43
2023/07/04 05:31:34;;;;;;;14.93;4.68;;;13.60;91.40;;;;;;5053558;28;20026;-43
2023/07/04 05:34:03;;;;;;;10.75;4.53;;;13.70;91.50;;;;;;5072164;28;20025;-43
2023/07/04 05:36:33;;;;;;;12.60;4.20;;;13.70;91.20;;;;;;5073911;28;20021;-43
2023/07/04 05:39:02;;;;;;;8.35;3.63;;;13.80;91.00;;;;;;5073782;28;20489;-43
2023/07/04 05:41:31;;;;;;;9.98;3.40;;;13.80;90.80;;;;;;5065935;28;20040;-42
2023/07/04 05:44:00;;;;;;;10.25;4.45;;;13.90;90.90;;;;;;5053176;28;20052;-43
2023/07/04 05:46:27;;;;;;;15.68;3.95;;;13.90;90.70;;;;;;5053190;28;20017;-43
2023/07/04 05:48:54;;;;;;;7.68;3.58;;;14.10;90.20;;;;;;5058651;28;20028;-44
2023/07/04 05:51:22;;;;;;;8.18;4.07;;;14.20;89.60;;;;;;5073205;28;20028;-44
2023/07/04 05:53:51;;;;;;;7.75;3.22;;;14.20;88.80;;;;;;5072975;28;20029;-44
2023/07/04 05:56:28;;;;;;;6.20;2.70;;;14.30;88.60;;;;;;5067773;28;20025;-43
2023/07/04 05:58:57;;;;;;;8.30;3.45;;;14.40;88.30;;;;;;5053473;28;20025;-44
2023/07/04 06:01:28;;;;;;;11.25;3.38;;;14.50;87.80;;;;;;5053373;28;20443;-44
2023/07/04 06:03:56;;;;;;;11.77;3.63;;;14.40;87.10;;;;;;5065471;28;20028;-42
2023/07/04 06:06:32;;;;;;;11.80;3.47;;;14.50;87.50;;;;;;5073673;28;20016;-44
2023/07/04 06:09:04;;;;;;;8.07;3.17;;;14.60;87.80;;;;;;5072414;28;20089;-44
2023/07/04 06:11:33;;;;;;;7.60;2.58;;;14.80;87.40;;;;;;5053661;28;20033;-44
2023/07/04 06:14:03;;;;;;;7.33;2.60;;;14.90;87.00;;;;;;5053586;28;20397;-43
2023/07/04 06:16:29;;;;;;;7.68;2.30;;;14.90;86.60;;;;;;5052971;28;20144;-44
2023/07/04 06:18:56;;;;;;;5.40;2.42;;;15.10;85.90;;;;;;5066492;28;20108;-43
2023/07/04 06:21:24;;;;;;;7.63;2.58;;;15.10;85.50;;;;;;5071131;28;20016;-44
2023/07/04 06:23:58;;;;;;;6.97;1.77;;;15.10;85.00;;;;;;5053536;28;20025;-44
2023/07/04 06:26:32;;;;;;;6.30;1.98;;;15.30;85.00;;;;;;5053196;28;20021;-46
2023/07/04 06:28:59;;;;;;;10.02;2.67;;;15.40;84.40;;;;;;5053417;28;20154;-45
2023/07/04 06:31:26;;;;;;;12.00;2.50;;;15.40;83.00;;;;;;5054590;28;20055;-45
2023/07/04 06:33:56;;;;;;;6.95;2.17;;;15.40;82.80;;;;;;5067952;28;20051;-45
2023/07/04 06:36:22;;;;;;;6.00;2.63;;;15.20;83.20;;;;;;5055725;28;20055;-48
2023/07/04 06:38:49;;;;;;;4.90;1.77;;;15.30;83.40;;;;;;5068904;28;20087;-46
2023/07/04 06:41:16;;;;;;;8.07;1.75;;;15.20;83.10;;;;;;5070547;28;20440;-46
2023/07/04 06:43:46;;;;;;;5.80;1.52;;;15.30;82.70;;;;;;5073088;28;20063;-46
2023/07/04 06:46:17;;;;;;;10.63;2.08;;;15.30;82.60;;;;;;5070343;28;20077;-45
2023/07/04 06:48:48;;;;;;;5.80;1.80;;;15.50;82.30;;;;;;5048137;28;20055;-46
2023/07/04 06:51:17;;;;;;;5.15;1.88;;;15.60;81.30;;;;;;5070108;28;20115;-46
2023/07/04 06:53:45;;;;;;;7.00;1.88;;;15.90;82.40;;;;;;5052858;28;20029;-46
2023/07/04 06:56:17;;;;;;;18.88;2.38;;;16.20;82.00;;;;;;5065947;28;20060;-48
2023/07/04 06:58:51;;;;;;;4.85;1.52;;;16.40;79.00;;;;;;5053189;28;20032;-47
2023/07/04 07:01:22;;;;;;;5.22;2.08;;;16.30;78.80;;;;;;5060584;28;20028;-47
2023/07/04 07:03:50;;;;;;;5.28;1.73;;;16.40;78.70;;;;;;5071575;28;20035;-46
2023/07/04 07:06:17;;;;;;;4.15;1.75;;;16.50;78.00;;;;;;5063316;28;20030;-47
2023/07/04 07:08:44;;;;;;;4.72;1.80;;;16.40;77.30;;;;;;5052864;28;20390;-49
2023/07/04 07:11:14;;;;;;;5.72;1.65;;;16.50;78.10;;;;;;5052798;28;20037;-47
2023/07/04 07:13:42;;;;;;;3.92;1.48;;;16.40;78.20;;;;;;5051635;28;20029;-46
2023/07/04 07:16:12;;;;;;;4.85;1.90;;;16.50;78.30;;;;;;5067313;28;20048;-47
2023/07/04 07:18:41;;;;;;;6.30;1.88;;;16.50;77.80;;;;;;5063623;28;20056;-46
2023/07/04 07:21:10;;;;;;;4.55;1.48;;;16.50;78.40;;;;;;5054771;28;20055;-47
2023/07/04 07:23:38;;;;;;;7.70;1.77;;;16.70;78.30;;;;;;5070707;28;20040;-46
2023/07/04 07:26:08;;;;;;;5.65;1.73;;;17.00;77.70;;;;;;5072645;28;20426;-48
2023/07/04 07:28:40;;;;;;;7.25;1.92;;;16.90;76.90;;;;;;5056181;28;20040;-48
2023/07/04 07:31:09;;;;;;;6.43;1.40;;;16.90;78.00;;;;;;5058600;28;20064;-47
2023/07/04 07:33:39;;;;;;;7.85;2.17;;;17.10;77.10;;;;;;5070800;28;20033;-48
2023/07/04 07:36:20;;;;;;;6.90;1.75;;;17.20;76.50;;;;;;5072438;28;20044;-46
2023/07/04 07:38:51;;;;;;;7.72;2.08;;;17.30;76.80;;;;;;5067562;28;20040;-47
2023/07/04 07:41:24;;;;;;;8.02;2.40;;;17.40;75.90;;;;;;5052615;28;20082;-47
2023/07/04 07:43:51;;;;;;;10.10;2.90;;;17.30;76.70;;;;;;5052711;28;20385;-50
2023/07/04 07:46:18;;;;;;;3.75;1.70;;;17.50;76.70;;;;;;5065383;28;20024;-47
2023/07/04 07:48:49;;;;;;;7.82;2.45;;;17.70;76.60;;;;;;5070910;28;20085;-46
2023/07/04 07:51:18;;;;;;;6.20;2.38;;;17.90;74.70;;;;;;5072272;28;20048;-47
2023/07/04 07:53:46;;;;;;;8.30;2.13;;;17.80;74.70;;;;;;5066162;28;20064;-47
2023/07/04 07:56:15;;;;;;;6.65;1.77;;;17.60;75.60;;;;;;5052283;28;20056;-49
2023/07/04 07:58:42;;;;;;;6.97;2.17;;;17.50;75.90;;;;;;5054435;28;20036;-49
2023/07/04 08:01:32;;;;;;;4.88;2.25;;;17.70;74.80;;;;;;5067686;28;20017;-47
2023/07/04 08:04:00;;;;;;;6.43;1.65;;;18.20;73.60;;;;;;5056038;28;20021;-48
2023/07/04 08:06:42;;;;;;;3.97;1.75;;;18.50;73.60;;;;;;5054711;28;20036;-49
2023/07/04 08:09:17;;;;;;;7.53;2.40;;;18.40;72.00;;;;;;5054840;28;20116;-48
2023/07/04 08:11:48;;;;;;;6.00;1.38;;;18.30;73.00;;;;;;5055750;28;20107;-50
2023/07/04 08:14:16;;;;;;;4.72;1.77;;;18.60;72.70;;;;;;5038141;28;20039;-49
2023/07/04 08:16:53;;;;;;;6.10;1.60;;;18.50;68.90;;;;;;5047441;28;20059;-47
2023/07/04 08:19:25;;;;;;;4.30;1.83;;;18.50;69.60;;;;;;5055048;28;20104;-51
2023/07/04 08:21:54;;;;;;;5.18;1.20;;;18.50;71.10;;;;;;5036919;28;20038;-48
2023/07/04 08:24:21;;;;;;;3.30;1.20;;;18.30;69.80;;;;;;5035400;28;20029;-47
2023/07/04 08:26:55;;;;;;;6.88;1.67;;;18.10;70.30;;;;;;5035734;28;20095;-48
2023/07/04 08:29:22;;;;;;;7.30;1.52;;;17.70;70.00;;;;;;5035565;28;20049;-51
2023/07/04 08:31:49;;;;;;;6.28;1.35;;;17.50;70.40;;;;;;5052498;28;20087;-47
2023/07/04 08:34:18;;;;;;;6.03;1.58;;;17.40;70.80;;;;;;5053319;28;20025;-46
2023/07/04 08:36:47;;;;;;;4.32;1.30;;;17.40;71.90;;;;;;5034858;28;20037;-46
2023/07/04 08:39:14;;;;;;;9.85;2.58;;;17.20;74.50;;;;;;5035254;28;20069;-47
2023/07/04 08:41:59;;;;;;;4.20;1.23;;;16.90;74.70;;;;;;5034713;28;20068;-46
2023/07/04 08:44:44;;;;;;;4.90;1.63;;;16.90;75.40;;;;;;5034904;28;20454;-44
2023/07/04 08:47:14;;;;;;;8.77;1.67;;;16.90;75.50;;;;;;5042117;28;20029;-44
2023/07/04 08:50:00;;;;;;;8.73;2.33;;;16.50;78.70;;;;;;5053968;28;20044;-44
2023/07/04 08:52:56;;;;;;;5.88;1.42;;;16.10;80.40;;;;;;5044411;28;20603;-45
2023/07/04 08:55:26;;;;;;;11.02;2.20;;;15.40;80.90;;;;;;5034504;28;20033;-43
2023/07/04 08:58:01;;;;;;;7.00;1.58;;;15.30;81.10;;;;;;5034640;28;20029;-50
2023/07/04 09:00:39;;;;;;;8.40;2.38;;;15.10;82.50;;;;;;5044009;28;20025;-48
2023/07/04 09:03:40;;;;;;;4.47;1.30;;;14.90;83.30;;;;;;5034395;28;20068;-47
2023/07/04 09:06:24;;;;;;;4.32;1.55;;;14.80;84.20;;;;;;5033964;28;20108;-49
2023/07/04 09:09:16;;;;;;;4.57;1.70;;;14.80;84.80;;;;;;5033851;28;20040;-47
2023/07/04 09:11:43;;;;;;;5.28;1.80;;;14.80;85.20;;;;;;5034553;28;20101;-50
2023/07/04 09:14:26;;;;;;;5.63;1.27;;;14.80;85.80;;;;;;5034952;28;20029;-47
2023/07/04 09:16:56;;;;;;;4.63;1.40;;;14.60;84.50;;;;;;5076440;28;20120;-45
2023/07/04 09:19:23;;;;;;;9.18;1.27;;;14.60;84.40;;;;;;5094885;28;20031;-44
2023/07/04 09:21:51;;;;;;;5.28;1.80;;;14.70;84.30;;;;;;5058715;28;20039;-43
2023/07/04 09:24:18;;;;;;;3.85;1.20;;;15.00;84.70;;;;;;5054760;28;20354;-44
2023/07/04 09:26:52;;;;;;;3.38;1.30;;;15.10;84.00;;;;;;5054130;28;20021;-49
2023/07/04 09:29:22;;;;;;;2.50;0.98;;;15.10;83.30;;;;;;5059388;28;20021;-54
2023/07/04 09:31:56;;;;;;;5.95;1.50;;;15.00;82.50;;;;;;5069201;28;20028;-51
2023/07/04 09:34:44;;;;;;;6.25;1.58;;;14.60;82.80;;;;;;5054457;28;20029;-45
2023/07/04 09:37:17;;;;;;;2.70;0.95;;;13.70;81.90;;;;;;5056316;28;21016;-53
2023/07/04 09:39:50;;;;;;;4.82;1.40;;;13.40;82.80;;;;;;5056842;28;20069;-53
2023/07/04 09:42:21;;;;;;;4.72;1.27;;;13.00;83.20;;;;;;5055793;28;20024;-48
2023/07/04 09:44:53;;;;;;;8.75;3.63;;;12.90;83.60;;;;;;5061828;28;20058;-50
2023/07/04 09:47:28;;;;;;;7.47;2.03;;;12.70;84.90;;;;;;5060104;28;20056;-45
2023/07/04 09:50:13;;;;;;;13.18;3.25;;;12.50;84.80;;;;;;5053557;28;20106;-43
2023/07/04 09:52:41;;;;;;;7.35;1.83;;;11.90;83.60;;;;;;5052499;28;20037;-45
2023/07/04 09:55:26;;;;;;;3.97;1.65;;;11.10;86.50;;;;;;5083135;28;20023;-45
2023/07/04 09:57:51;;;;;;;8.75;2.00;;;10.90;88.20;;;;;;5070464;28;20040;-50
2023/07/04 10:00:24;;;;;;;6.28;1.85;;;11.00;89.10;;;;;;5055466;28;20021;-48
2023/07/04 10:02:56;;;;;;;4.88;1.92;;;11.10;90.20;;;;;;5085676;28;20447;-47
2023/07/04 10:05:35;;;;;;;5.70;1.52;;;11.30;91.20;;;;;;5093986;28;20020;-47
2023/07/04 10:08:19;;;;;;;4.70;1.70;;;11.60;92.20;;;;;;5093499;28;20020;-46
2023/07/04 10:11:03;;;;;;;6.15;2.03;;;12.00;92.70;;;;;;5054069;28;20037;-45
2023/07/04 10:13:40;;;;;;;3.42;2.13;;;12.40;92.80;;;;;;5035838;28;20033;-46
2023/07/04 10:16:25;;;;;;;5.55;1.77;;;12.60;92.90;;;;;;5071060;28;20048;-45
2023/07/04 10:19:09;;;;;;;5.90;2.13;;;12.60;92.70;;;;;;5072677;28;20033;-49
2023/07/04 10:21:53;;;;;;;8.90;2.03;;;12.80;92.60;;;;;;5054980;28;20029;-49
2023/07/04 10:24:24;;;;;;;5.65;2.38;;;12.90;92.60;;;;;;5052864;28;20021;-45
2023/07/04 10:27:15;;;;;;;4.82;1.75;;;13.00;92.60;;;;;;5051470;28;20017;-44
2023/07/04 10:29:59;;;;;;;4.60;2.08;;;13.30;92.90;;;;;;5061985;28;20446;-44
2023/07/04 10:32:27;;;;;;;4.03;1.88;;;13.60;93.10;;;;;;5067260;28;20077;-45
2023/07/04 10:34:55;;;;;;;4.57;2.17;;;13.80;93.00;;;;;;5073010;28;20037;-56
2023/07/04 10:37:31;;;;;;;11.75;3.20;;;13.90;92.60;;;;;;5054087;28;20114;-48
2023/07/04 10:40:04;;;;;;;9.13;2.70;;;13.60;91.20;;;;;;5066987;28;20038;-50
2023/07/04 10:42:52;;;;;;;7.75;3.67;;;13.20;88.00;;;;;;5072948;28;20113;-51
2023/07/04 10:45:21;;;;;;;3.50;1.48;;;12.90;87.80;;;;;;5068773;28;20027;-49
2023/07/04 10:47:52;;;;;;;3.17;0.95;;;12.50;88.70;;;;;;5073089;28;20153;-52
2023/07/04 10:50:39;;;;;;;4.38;1.40;;;12.10;88.60;;;;;;5064154;28;20056;-48
2023/07/04 10:53:07;;;;;;;5.40;1.27;;;11.90;88.60;;;;;;5064545;28;20148;-48
2023/07/04 10:55:43;;;;;;;6.30;1.67;;;11.70;89.20;;;;;;5043015;28;20037;-46
2023/07/04 10:58:24;;;;;;;3.92;0.93;;;11.70;89.30;;;;;;5052872;28;20395;-48
2023/07/04 11:01:14;;;;;;;8.88;2.40;;;11.80;89.50;;;;;;5070596;28;20047;-45
2023/07/04 11:03:52;;;;;;;10.68;1.90;;;11.90;89.90;;;;;;5053332;28;20079;-45
2023/07/04 11:06:32;;;;;;;4.07;1.67;;;12.00;90.30;;;;;;5051619;28;20025;-43
2023/07/04 11:09:00;;;;;;;5.75;1.77;;;12.60;91.40;;;;;;5053146;28;20052;-44
2023/07/04 11:11:30;;;;;;;6.78;1.90;;;13.50;92.30;;;;;;5053322;28;20159;-44
2023/07/04 11:14:01;;;;;;;5.07;1.70;;;14.30;92.10;;;;;;5064923;28;20037;-43
2023/07/04 11:16:33;;;;;;;7.78;1.45;;;15.10;91.50;;;;;;5072452;28;20369;-44
2023/07/04 11:19:21;;;;;;;4.70;1.23;;;15.70;90.10;;;;;;5072503;28;20056;-45
2023/07/04 11:22:05;;;;;;;5.30;2.00;;;15.90;88.50;;;;;;5052665;28;20429;-45
2023/07/04 11:24:43;;;;;;;6.22;2.00;;;15.80;85.60;;;;;;5052417;28;20033;-44
2023/07/04 11:27:18;;;;;;;6.13;2.08;;;15.80;86.00;;;;;;5064037;28;20059;-45
2023/07/04 11:30:06;;;;;;;8.98;2.42;;;16.00;87.10;;;;;;5053871;28;20028;-46
2023/07/04 11:32:54;;;;;;;8.18;2.30;;;16.50;87.20;;;;;;5053257;28;20331;-45
2023/07/04 11:35:31;;;;;;;8.60;2.20;;;16.70;86.10;;;;;;5056435;28;20033;-47
2023/07/04 11:38:05;;;;;;;7.80;1.73;;;17.00;84.70;;;;;;5038592;28;20121;-48
2023/07/04 11:40:55;;;;;;;7.07;2.25;;;17.10;84.50;;;;;;5039088;28;20162;-47
2023/07/04 11:43:24;;;;;;;;;;;17.40;84.60;;;;;;5071992;28;20020;-46
2023/07/04 11:45:55;;;;;;;8.48;2.45;;;17.40;82.30;;;;;;5063637;28;20015;-46
2023/07/04 11:48:27;;;;;;;4.40;1.85;;;17.10;80.40;;;;;;5056407;28;20040;-47
2023/07/04 11:51:04;;;;;;;7.85;2.58;;;16.90;81.30;;;;;;5056506;28;20116;-46
2023/07/04 11:53:45;;;;;;;5.38;2.13;;;16.60;83.20;;;;;;5056310;28;20074;-46
2023/07/04 11:56:23;;;;;;;5.05;1.80;;;16.50;83.00;;;;;;5060050;28;20112;-46
2023/07/04 11:59:12;;;;;;;8.85;2.53;;;16.20;83.70;;;;;;5056334;28;20411;-46
2023/07/04 12:02:08;;;;;;;6.47;2.03;;;15.80;83.30;;;;;;5056122;28;20059;-45
2023/07/04 12:04:36;;;;;;;11.02;3.28;;;15.50;84.20;;;;;;5053277;28;20459;-43
2023/07/04 12:07:10;;;;;;;6.63;2.72;;;15.40;85.10;;;;;;5056211;28;20064;-42
2023/07/04 12:09:42;;;;;;;7.00;2.70;;;15.70;87.60;;;;;;5056157;28;20039;-43
2023/07/04 12:12:19;;;;;;;7.50;1.88;;;16.00;88.30;;;;;;5067221;28;20025;-43
2023/07/04 12:14:47;;;;;;;9.15;2.50;;;16.10;86.90;;;;;;5054656;28;20040;-45
2023/07/04 12:17:16;;;;;;;10.87;2.90;;;16.40;86.70;;;;;;5055708;28;20060;-49
2023/07/04 12:19:43;;;;;;;10.13;2.47;;;16.20;85.10;;;;;;5055534;28;20504;-45
2023/07/04 12:22:18;;;;;;;5.20;1.95;;;16.10;85.20;;;;;;5037920;28;20025;-49
2023/07/04 12:24:46;;;;;;;11.23;3.70;;;16.20;84.80;;;;;;5058033;28;20291;-45
2023/07/04 12:27:12;;;;;;;6.60;2.50;;;16.00;84.80;;;;;;5074192;28;20095;-43
2023/07/04 12:29:47;;;;;;;8.30;2.47;;;15.90;85.60;;;;;;5075529;28;20032;-43
2023/07/04 12:32:18;;;;;;;6.57;2.75;;;16.10;87.20;;;;;;5063948;28;20044;-43
2023/07/04 12:34:45;;;;;;;6.05;2.05;;;16.60;88.50;;;;;;5055272;28;20029;-44
2023/07/04 12:37:19;;;;;;;6.53;2.10;;;16.90;87.50;;;;;;5055529;28;20056;-45
2023/07/04 12:39:47;;;;;;;7.05;2.90;;;17.10;87.10;;;;;;5054500;28;20037;-46
2023/07/04 12:42:33;;;;;;;7.28;2.10;;;17.40;85.40;;;;;;5057542;28;20415;-46
2023/07/04 12:45:08;;;;;;;7.00;2.17;;;17.50;84.80;;;;;;5064039;28;20455;-46
2023/07/04 12:47:41;;;;;;;10.15;2.70;;;17.90;84.60;;;;;;5068689;28;20060;-49
2023/07/04 12:50:09;;;;;;;5.63;2.45;;;18.10;83.00;;;;;;5075489;28;20112;-49
2023/07/04 12:52:37;;;;;;;7.95;1.90;;;18.20;82.20;;;;;;5075603;28;20048;-48
2023/07/04 12:55:06;;;;;;;6.97;2.22;;;18.30;80.50;;;;;;5065005;28;20090;-50
2023/07/04 12:57:33;;;;;;;8.35;2.80;;;18.40;81.60;;;;;;5072792;28;20028;-48
2023/07/04 13:00:37;;;;;;;7.38;2.90;;;18.80;81.00;;;;;;5074072;28;20036;-50
2023/07/04 13:03:15;;;;;;;7.95;1.83;;;18.70;77.90;;;;;;5055008;28;20111;-50
2023/07/04 13:05:45;;;;;;;7.68;1.80;;;18.80;76.60;;;;;;5037471;28;20039;-48
2023/07/04 13:08:25;;;;;;;10.00;1.90;;;19.00;74.20;;;;;;5054397;28;20021;-48
2023/07/04 13:10:55;;;;;;;3.83;1.55;;;19.10;73.70;;;;;;5070039;28;20181;-47